createdAt,value
2023-04-16T00:01:24.289Z,102343.25
2023-04-16T00:03:50.861Z,102359.97
2023-04-16T00:06:17.457Z,102348.50
2023-04-16T00:08:43.934Z,102346.66
2023-04-16T00:11:10.458Z,102348.34
2023-04-16T00:13:37.025Z,102348.34
2023-04-16T00:16:03.412Z,102344.09
2023-04-16T00:18:30.163Z,102356.41
2023-04-16T00:20:56.533Z,102355.63
2023-04-16T00:23:24.891Z,102353.75
2023-04-16T00:25:51.608Z,102351.22
2023-04-16T00:28:17.921Z,102358.19
2023-04-16T00:30:44.327Z,102359.03
2023-04-16T00:33:10.748Z,102353.84
2023-04-16T00:35:37.218Z,102352.25
2023-04-16T00:38:03.584Z,102348.50
2023-04-16T00:40:30.066Z,102354.56
2023-04-16T00:42:56.446Z,102349.34
2023-04-16T00:45:22.772Z,102343.25
2023-04-16T00:47:49.617Z,102354.78
2023-04-16T00:50:17.501Z,102359.22
2023-04-16T00:52:43.855Z,102347.00
2023-04-16T00:55:13.251Z,102357.56
2023-04-16T00:57:39.742Z,102353.09
2023-04-16T01:00:07.003Z,102348.69
2023-04-16T01:02:34.234Z,102349.69
2023-04-16T01:05:02.101Z,102353.94
2023-04-16T01:10:04.080Z,102354.09
2023-04-16T01:12:30.563Z,102357.50
2023-04-16T01:14:57.157Z,102358.44
2023-04-16T01:17:23.544Z,102354.09
2023-04-16T01:19:49.920Z,102354.94
2023-04-16T01:22:16.309Z,102361.09
2023-04-16T01:24:42.680Z,102350.47
2023-04-16T01:27:09.076Z,102357.66
2023-04-16T01:29:35.420Z,102357.66
2023-04-16T01:32:01.911Z,102357.75
2023-04-16T01:34:28.297Z,102360.38
2023-04-16T01:36:54.748Z,102357.66
2023-04-16T01:39:21.080Z,102362.91
2023-04-16T01:41:47.432Z,102362.91
2023-04-16T01:44:13.770Z,102359.34
2023-04-16T01:46:40.214Z,102365.66
2023-04-16T01:49:07.488Z,102362.91
2023-04-16T01:51:34.099Z,102357.66
2023-04-16T01:54:01.077Z,102358.44
2023-04-16T01:56:27.513Z,102366.25
2023-04-16T01:58:53.952Z,102361.84
2023-04-16T02:01:20.420Z,102367.09
2023-04-16T02:03:47.686Z,102362.78
2023-04-16T02:06:14.827Z,102359.22
2023-04-16T02:08:41.751Z,102368.69
2023-04-16T02:11:08.188Z,102367.69
2023-04-16T02:13:34.691Z,102364.97
2023-04-16T02:16:01.193Z,102367.69
2023-04-16T02:18:27.881Z,102362.25
2023-04-16T02:20:54.240Z,102359.63
2023-04-16T02:23:20.566Z,102352.69
2023-04-16T02:25:47.623Z,102354.38
2023-04-16T02:28:16.287Z,102355.13
2023-04-16T02:30:43.994Z,102356.84
2023-04-16T02:33:11.587Z,102354.28
2023-04-16T02:35:39.422Z,102359.47
2023-04-16T02:38:06.257Z,102362.88
2023-04-16T02:40:32.787Z,102354.97
2023-04-16T02:42:59.247Z,102360.06
2023-04-16T02:45:25.840Z,102351.16
2023-04-16T02:47:52.365Z,102362.44
2023-04-16T02:50:19.067Z,102366.66
2023-04-16T02:52:45.472Z,102356.16
2023-04-16T02:55:12.093Z,102373.66
2023-04-16T02:57:38.440Z,102358.03
2023-04-16T03:00:05.443Z,102361.41
2023-04-16T03:02:31.966Z,102366.66
2023-04-16T03:04:58.449Z,102365.75
2023-04-16T03:07:24.931Z,102356.09
2023-04-16T03:09:51.437Z,102371.94
2023-04-16T03:12:17.743Z,102365.81
2023-04-16T03:14:44.065Z,102370.22
2023-04-16T03:17:10.770Z,102374.56
2023-04-16T03:19:37.224Z,102371.94
2023-04-16T03:22:03.651Z,102382.44
2023-04-16T03:24:30.031Z,102389.44
2023-04-16T03:26:57.831Z,102378.91
2023-04-16T03:29:24.236Z,102377.19
2023-04-16T03:31:50.566Z,102380.75
2023-04-16T03:34:16.977Z,102385.06
2023-04-16T03:36:43.358Z,102392.97
2023-04-16T03:39:09.882Z,102391.28
2023-04-16T03:41:36.442Z,102394.69
2023-04-16T03:44:02.884Z,102391.28
2023-04-16T03:46:29.234Z,102380.75
2023-04-16T03:48:55.604Z,102391.47
2023-04-16T03:51:21.914Z,102396.72
2023-04-16T03:53:48.237Z,102391.38
2023-04-16T03:56:14.548Z,102391.47
2023-04-16T03:58:40.929Z,102389.59
2023-04-16T04:01:07.282Z,102400.09
2023-04-16T04:03:33.752Z,102395.69
2023-04-16T04:06:00.353Z,102400.94
2023-04-16T04:08:26.841Z,102392.22
2023-04-16T04:10:53.238Z,102395.03
2023-04-16T04:13:19.662Z,102389.78
2023-04-16T04:15:46.001Z,102393.31
2023-04-16T04:18:12.377Z,102395.94
2023-04-16T04:20:40.855Z,102400.09
2023-04-16T04:23:07.212Z,102394.84
2023-04-16T04:25:33.642Z,102404.53
2023-04-16T04:27:59.994Z,102397.56
2023-04-16T04:30:26.344Z,102401.97
2023-04-16T04:32:52.778Z,102405.38
2023-04-16T04:35:19.204Z,102410.47
2023-04-16T04:37:45.815Z,102416.72
2023-04-16T04:40:12.158Z,102413.25
2023-04-16T04:42:38.556Z,102418.53
2023-04-16T04:45:05.832Z,102421.25
2023-04-16T04:47:32.181Z,102423.97
2023-04-16T04:49:58.603Z,102423.03
2023-04-16T04:52:24.945Z,102427.44
2023-04-16T04:54:51.243Z,102421.34
2023-04-16T04:57:17.640Z,102426.59
2023-04-16T04:59:44.031Z,102427.44
2023-04-16T05:02:10.419Z,102429.22
2023-04-16T05:04:36.884Z,102422.94
2023-04-16T05:07:03.236Z,102426.41
2023-04-16T05:09:29.619Z,102421.34
2023-04-16T05:11:57.485Z,102425.81
2023-04-16T05:14:24.104Z,102432.69
2023-04-16T05:16:50.657Z,102430.13
2023-04-16T05:19:17.404Z,102429.22
2023-04-16T05:21:43.778Z,102433.63
2023-04-16T05:24:10.171Z,102428.44
2023-04-16T05:26:36.783Z,102429.22
2023-04-16T05:29:03.222Z,102426.41
2023-04-16T05:31:29.633Z,102433.38
2023-04-16T05:33:56.041Z,102428.00
2023-04-16T05:36:22.609Z,102438.63
2023-04-16T05:38:48.932Z,102444.72
2023-04-16T05:41:15.550Z,102436.78
2023-04-16T05:43:41.916Z,102446.38
2023-04-16T05:46:08.345Z,102445.44
2023-04-16T05:48:34.789Z,102440.16
2023-04-16T05:51:02.653Z,102440.00
2023-04-16T05:53:29.132Z,102448.81
2023-04-16T05:55:55.660Z,102448.06
2023-04-16T05:58:22.059Z,102454.94
2023-04-16T06:00:48.546Z,102455.78
2023-04-16T06:03:15.046Z,102458.25
2023-04-16T06:05:41.621Z,102460.88
2023-04-16T06:08:08.109Z,102455.63
2023-04-16T06:10:34.502Z,102457.22
2023-04-16T06:13:00.914Z,102468.59
2023-04-16T06:15:27.227Z,102471.22
2023-04-16T06:17:54.508Z,102469.38
2023-04-16T06:20:20.882Z,102466.75
2023-04-16T06:22:47.312Z,102466.59
2023-04-16T06:25:13.829Z,102470.94
2023-04-16T06:27:40.923Z,102480.50
2023-04-16T06:30:12.455Z,102484.00
2023-04-16T06:32:38.962Z,102481.31
2023-04-16T06:35:05.886Z,102479.44
2023-04-16T06:37:32.225Z,102476.03
2023-04-16T06:39:58.515Z,102482.06
2023-04-16T06:42:24.935Z,102479.44
2023-04-16T06:44:51.497Z,102484.28
2023-04-16T06:47:17.942Z,102479.84
2023-04-16T06:49:44.403Z,102494.56
2023-04-16T06:52:11.754Z,102491.13
2023-04-16T06:54:38.156Z,102493.72
2023-04-16T06:57:04.475Z,102497.94
2023-04-16T06:59:31.210Z,102499.81
2023-04-16T07:01:57.735Z,102500.66
2023-04-16T07:04:24.263Z,102508.66
2023-04-16T07:06:50.845Z,102506.78
2023-04-16T07:09:17.938Z,102499.63
2023-04-16T07:11:44.690Z,102508.47
2023-04-16T07:14:11.114Z,102511.81
2023-04-16T07:16:37.820Z,102513.31
2023-04-16T07:19:04.424Z,102511.53
2023-04-16T07:21:31.556Z,102517.56
2023-04-16T07:23:57.949Z,102514.94
2023-04-16T07:26:24.370Z,102522.75
2023-04-16T07:28:50.773Z,102521.91
2023-04-16T07:31:17.409Z,102530.56
2023-04-16T07:33:43.864Z,102521.91
2023-04-16T07:36:10.931Z,102528.88
2023-04-16T07:38:37.353Z,102528.69
2023-04-16T07:41:03.914Z,102527.94
2023-04-16T07:43:30.424Z,102537.53
2023-04-16T07:45:56.894Z,102536.25
2023-04-16T07:48:23.338Z,102540.84
2023-04-16T07:50:50.249Z,102546.78
2023-04-16T07:53:16.669Z,102546.78
2023-04-16T07:55:43.008Z,102552.22
2023-04-16T07:58:09.600Z,102551.38
2023-04-16T08:00:36.004Z,102553.78
2023-04-16T08:03:02.611Z,102558.09
2023-04-16T08:05:29.272Z,102553.41
2023-04-16T08:07:55.927Z,102561.16
2023-04-16T08:10:22.371Z,102560.13
2023-04-16T08:12:48.801Z,102560.13
2023-04-16T08:15:15.253Z,102574.75
2023-04-16T08:17:41.715Z,102570.31
2023-04-16T08:20:08.533Z,102574.25
2023-04-16T08:22:34.923Z,102575.59
2023-04-16T08:25:01.779Z,102575.59
2023-04-16T08:27:28.392Z,102580.28
2023-04-16T08:29:54.791Z,102580.88
2023-04-16T08:32:21.207Z,102577.09
2023-04-16T08:34:47.628Z,102582.22
2023-04-16T08:37:13.959Z,102585.63
2023-04-16T08:39:40.519Z,102593.94
2023-04-16T08:42:14.413Z,102586.03
2023-04-16T08:44:49.026Z,102592.22
2023-04-16T08:47:16.324Z,102592.06
2023-04-16T08:49:48.622Z,102595.38
2023-04-16T08:52:19.110Z,102599.03
2023-04-16T08:54:57.346Z,102595.88
2023-04-16T08:57:26.806Z,102595.94
2023-04-16T08:59:55.170Z,102589.56
2023-04-16T09:02:22.109Z,102584.88
2023-04-16T09:04:50.526Z,102585.63
2023-04-16T09:07:19.514Z,102600.69
2023-04-16T09:09:50.478Z,102591.66
2023-04-16T09:12:17.392Z,102595.63
2023-04-16T09:14:47.000Z,102593.19
2023-04-16T09:17:14.172Z,102594.19
2023-04-16T09:19:40.887Z,102597.78
2023-04-16T09:22:07.405Z,102597.72
2023-04-16T09:24:34.293Z,102605.78
2023-04-16T09:27:00.960Z,102611.25
2023-04-16T09:29:36.215Z,102600.34
2023-04-16T09:32:10.434Z,102603.03
2023-04-16T09:35:03.632Z,102605.94
2023-04-16T09:37:30.931Z,102611.81
2023-04-16T09:40:02.280Z,102619.25
2023-04-16T09:42:30.869Z,102616.03
2023-04-16T09:45:00.340Z,102622.41
2023-04-16T09:47:44.727Z,102625.66
2023-04-16T09:50:18.779Z,102623.75
2023-04-16T09:52:52.834Z,102638.91
2023-04-16T09:55:27.438Z,102630.72
2023-04-16T09:58:00.187Z,102634.31
2023-04-16T10:00:26.598Z,102640.50
2023-04-16T10:03:04.579Z,102638.91
2023-04-16T10:05:31.031Z,102642.00
2023-04-16T10:08:01.313Z,102639.75
2023-04-16T10:10:28.191Z,102637.69
2023-04-16T10:12:55.719Z,102641.78
2023-04-16T10:15:22.251Z,102637.50
2023-04-16T10:17:50.088Z,102642.22
2023-04-16T10:20:18.400Z,102649.94
2023-04-16T10:22:45.139Z,102648.66
2023-04-16T10:25:11.950Z,102641.06
2023-04-16T10:27:38.611Z,102645.09
2023-04-16T10:30:07.614Z,102644.69
2023-04-16T10:32:34.909Z,102639.97
2023-04-16T10:35:01.307Z,102643.47
2023-04-16T10:37:31.585Z,102647.16
2023-04-16T10:40:01.286Z,102645.94
2023-04-16T10:42:28.910Z,102648.00
2023-04-16T10:44:59.980Z,102650.22
2023-04-16T10:47:26.672Z,102645.09
2023-04-16T10:49:53.101Z,102648.19
2023-04-16T10:52:20.174Z,102649.63
2023-04-16T10:54:48.296Z,102650.66
2023-04-16T10:57:19.577Z,102653.88
2023-04-16T10:59:46.449Z,102643.88
2023-04-16T11:02:19.713Z,102654.69
2023-04-16T11:04:48.323Z,102658.66
2023-04-16T11:07:20.567Z,102651.78
2023-04-16T11:10:02.024Z,102657.56
2023-04-16T11:12:42.402Z,102654.31
2023-04-16T11:15:30.835Z,102648.84
2023-04-16T11:17:57.636Z,102653.47
2023-04-16T11:20:26.144Z,102655.16
2023-04-16T11:22:54.811Z,102655.31
2023-04-16T11:25:26.977Z,102659.06
2023-04-16T11:27:53.805Z,102658.19
2023-04-16T11:30:29.700Z,102655.75
2023-04-16T11:32:56.140Z,102654.97
2023-04-16T11:35:22.709Z,102663.31
2023-04-16T11:37:49.171Z,102660.47
2023-04-16T11:40:15.735Z,102666.56
2023-04-16T11:42:42.772Z,102667.22
2023-04-16T11:45:11.762Z,102660.44
2023-04-16T11:47:45.381Z,102663.66
2023-04-16T11:50:41.364Z,102662.63
2023-04-16T11:53:07.785Z,102661.03
2023-04-16T11:55:44.482Z,102663.69
2023-04-16T11:58:17.328Z,102659.56
2023-04-16T12:00:45.010Z,102662.28
2023-04-16T12:03:11.474Z,102668.97
2023-04-16T12:05:39.552Z,102665.94
2023-04-16T12:08:10.770Z,102665.97
2023-04-16T12:10:53.489Z,102671.25
2023-04-16T12:13:19.990Z,102669.56
2023-04-16T12:15:51.078Z,102674.00
2023-04-16T12:18:18.703Z,102666.91
2023-04-16T12:20:46.486Z,102677.47
2023-04-16T12:23:29.276Z,102682.09
2023-04-16T12:25:59.594Z,102682.97
2023-04-16T12:28:34.602Z,102676.72
2023-04-16T12:31:02.279Z,102680.00
2023-04-16T12:33:29.069Z,102678.78
2023-04-16T12:35:55.473Z,102682.75
2023-04-16T12:38:24.278Z,102683.81
2023-04-16T12:40:51.421Z,102682.00
2023-04-16T12:43:18.114Z,102689.44
2023-04-16T12:45:44.715Z,102688.97
2023-04-16T12:48:11.498Z,102686.13
2023-04-16T12:50:39.559Z,102687.47
2023-04-16T12:53:05.912Z,102681.78
2023-04-16T12:55:32.329Z,102691.44
2023-04-16T12:57:58.658Z,102684.28
2023-04-16T13:00:25.323Z,102689.34
2023-04-16T13:02:51.852Z,102684.31
2023-04-16T13:05:19.292Z,102691.34
2023-04-16T13:07:46.081Z,102686.66
2023-04-16T13:10:13.194Z,102683.88
2023-04-16T13:12:39.704Z,102679.53
2023-04-16T13:15:06.623Z,102685.84
2023-04-16T13:17:33.038Z,102686.44
2023-04-16T13:19:59.428Z,102683.22
2023-04-16T13:22:26.077Z,102684.28
2023-04-16T13:24:52.471Z,102681.63
2023-04-16T13:27:18.945Z,102668.59
2023-04-16T13:29:46.138Z,102675.19
2023-04-16T13:32:13.917Z,102682.09
2023-04-16T13:34:40.594Z,102677.28
2023-04-16T13:37:07.067Z,102679.00
2023-04-16T13:39:33.716Z,102675.47
2023-04-16T13:42:00.324Z,102685.28
2023-04-16T13:44:26.772Z,102683.09
2023-04-16T13:46:53.235Z,102683.53
2023-04-16T13:49:19.708Z,102679.81
2023-04-16T13:51:46.199Z,102680.31
2023-04-16T13:54:13.130Z,102684.28
2023-04-16T13:56:39.501Z,102682.38
2023-04-16T13:59:06.034Z,102676.13
2023-04-16T14:01:32.567Z,102679.91
2023-04-16T14:04:00.300Z,102674.81
2023-04-16T14:06:26.940Z,102673.72
2023-04-16T14:08:53.272Z,102674.88
2023-04-16T14:11:19.633Z,102667.72
2023-04-16T14:13:46.048Z,102672.44
2023-04-16T14:16:12.720Z,102666.53
2023-04-16T14:18:42.149Z,102680.06
2023-04-16T14:21:09.160Z,102675.50
2023-04-16T14:23:35.613Z,102678.13
2023-04-16T14:26:02.016Z,102680.31
2023-04-16T14:28:28.421Z,102680.31
2023-04-16T14:30:54.733Z,102676.38
2023-04-16T14:33:21.221Z,102667.09
2023-04-16T14:35:47.723Z,102668.38
2023-04-16T14:38:14.227Z,102675.59
2023-04-16T14:40:40.683Z,102672.94
2023-04-16T14:43:07.256Z,102677.97
2023-04-16T14:45:33.743Z,102684.94
2023-04-16T14:48:00.199Z,102680.06
2023-04-16T14:50:26.550Z,102681.38
2023-04-16T14:52:54.514Z,102674.22
2023-04-16T14:55:21.307Z,102669.53
2023-04-16T14:57:47.695Z,102670.69
2023-04-16T15:00:17.556Z,102672.59
2023-04-16T15:02:44.546Z,102668.38
2023-04-16T15:05:11.050Z,102666.50
2023-04-16T15:07:37.388Z,102668.78
2023-04-16T15:10:04.343Z,102667.47
2023-04-16T15:12:31.024Z,102666.47
2023-04-16T15:14:57.371Z,102661.66
2023-04-16T15:17:23.924Z,102664.63
2023-04-16T15:19:52.056Z,102665.34
2023-04-16T15:22:18.462Z,102667.28
2023-04-16T15:24:45.164Z,102660.34
2023-04-16T15:27:12.404Z,102664.31
2023-04-16T15:29:38.789Z,102671.00
2023-04-16T15:32:06.775Z,102666.06
2023-04-16T15:34:33.104Z,102670.13
2023-04-16T15:36:59.406Z,102666.03
2023-04-16T15:39:25.968Z,102674.59
2023-04-16T15:44:22.154Z,102671.72
2023-04-16T15:46:48.631Z,102670.28
2023-04-16T15:49:15.308Z,102666.28
2023-04-16T15:51:41.689Z,102663.78
2023-04-16T15:54:08.382Z,102670.97
2023-04-16T15:56:34.810Z,102661.91
2023-04-16T15:59:01.194Z,102663.44
2023-04-16T16:01:27.627Z,102667.59
2023-04-16T16:03:54.265Z,102666.84
2023-04-16T16:06:20.962Z,102666.84
2023-04-16T16:08:48.356Z,102665.28
2023-04-16T16:11:14.746Z,102670.81
2023-04-16T16:13:41.695Z,102664.22
2023-04-16T16:16:08.059Z,102664.84
2023-04-16T16:18:34.439Z,102666.69
2023-04-16T16:21:00.780Z,102663.59
2023-04-16T16:23:27.195Z,102673.31
2023-04-16T16:25:53.513Z,102662.75
2023-04-16T16:28:20.615Z,102666.31
2023-04-16T16:30:47.444Z,102669.34
2023-04-16T16:33:15.354Z,102666.31
2023-04-16T16:35:41.716Z,102669.19
2023-04-16T16:38:08.116Z,102665.22
2023-04-16T16:40:34.473Z,102661.22
2023-04-16T16:43:00.930Z,102663.66
2023-04-16T16:45:28.524Z,102668.59
2023-04-16T16:47:55.442Z,102666.72
2023-04-16T16:50:21.950Z,102668.44
2023-04-16T16:52:48.283Z,102671.41
2023-04-16T16:55:17.137Z,102684.97
2023-04-16T16:57:44.671Z,102679.50
2023-04-16T17:00:11.823Z,102679.84
2023-04-16T17:02:38.534Z,102695.81
2023-04-16T17:05:06.033Z,102689.56
2023-04-16T17:07:32.861Z,102684.84
2023-04-16T17:10:02.429Z,102695.66
2023-04-16T17:12:30.308Z,102695.53
2023-04-16T17:14:56.874Z,102696.09
2023-04-16T17:17:23.608Z,102686.72
2023-04-16T17:19:49.988Z,102693.19
2023-04-16T17:22:16.392Z,102699.00
2023-04-16T17:24:43.110Z,102699.69
2023-04-16T17:27:09.419Z,102705.16
2023-04-16T17:29:35.836Z,102700.97
2023-04-16T17:32:02.291Z,102707.50
2023-04-16T17:34:28.828Z,102712.78
2023-04-16T17:36:55.201Z,102711.09
2023-04-16T17:39:21.598Z,102719.16
2023-04-16T17:41:53.991Z,102717.78
2023-04-16T17:44:20.561Z,102723.22
2023-04-16T17:46:46.995Z,102726.03
2023-04-16T17:49:13.328Z,102725.25
2023-04-16T17:51:40.933Z,102731.28
2023-04-16T17:54:07.252Z,102726.19
2023-04-16T17:56:33.572Z,102735.38
2023-04-16T17:58:59.940Z,102734.75
2023-04-16T18:01:27.367Z,102733.81
2023-04-16T18:03:53.959Z,102738.09
2023-04-16T18:06:20.446Z,102734.44
2023-04-16T18:08:46.793Z,102743.19
2023-04-16T18:11:13.192Z,102736.22
2023-04-16T18:13:39.901Z,102736.31
2023-04-16T18:16:07.622Z,102741.56
2023-04-16T18:18:34.193Z,102747.75
2023-04-16T18:21:00.660Z,102744.34
2023-04-16T18:23:27.858Z,102749.00
2023-04-16T18:25:54.582Z,102748.25
2023-04-16T18:28:21.335Z,102749.94
2023-04-16T18:30:49.526Z,102749.28
2023-04-16T18:35:45.410Z,102764.38
2023-04-16T18:38:13.496Z,102759.41
2023-04-16T18:40:40.645Z,102759.41
2023-04-16T18:43:07.017Z,102763.16
2023-04-16T18:45:34.238Z,102775.84
2023-04-16T18:48:02.808Z,102774.31
2023-04-16T18:50:29.284Z,102774.41
2023-04-16T18:52:55.652Z,102776.97
2023-04-16T18:55:22.012Z,102779.72
2023-04-16T18:57:48.377Z,102785.16
2023-04-16T19:00:15.200Z,102787.63
2023-04-16T19:02:42.124Z,102782.66
2023-04-16T19:05:09.563Z,102782.63
2023-04-16T19:07:36.958Z,102787.81
2023-04-16T19:10:04.781Z,102789.59
2023-04-16T19:12:31.943Z,102781.75
2023-04-16T19:14:58.419Z,102785.25
2023-04-16T19:17:24.866Z,102794.31
2023-04-16T19:19:51.288Z,102790.75
2023-04-16T19:22:17.635Z,102789.97
2023-04-16T19:24:44.002Z,102791.72
2023-04-16T19:27:10.370Z,102796.13
2023-04-16T19:29:36.948Z,102790.03
2023-04-16T19:32:03.828Z,102789.19
2023-04-16T19:34:30.925Z,102790.28
2023-04-16T19:36:57.298Z,102786.72
2023-04-16T19:39:27.847Z,102791.03
2023-04-16T19:41:54.157Z,102783.44
2023-04-16T19:44:23.005Z,102790.59
2023-04-16T19:46:49.429Z,102788.09
2023-04-16T19:49:15.989Z,102799.63
2023-04-16T19:51:42.371Z,102792.59
2023-04-16T19:54:09.004Z,102796.06
2023-04-16T19:56:35.738Z,102797.84
2023-04-16T19:59:02.437Z,102796.16
2023-04-16T20:01:30.667Z,102800.47
2023-04-16T20:03:57.175Z,102804.72
2023-04-16T20:06:23.994Z,102798.63
2023-04-16T20:08:50.562Z,102800.41
2023-04-16T20:11:17.649Z,102799.53
2023-04-16T20:13:47.818Z,102801.50
2023-04-16T20:16:14.634Z,102809.31
2023-04-16T20:18:43.725Z,102810.06
2023-04-16T20:21:10.416Z,102800.47
2023-04-16T20:23:36.778Z,102795.22
2023-04-16T20:26:04.287Z,102809.44
2023-04-16T20:28:30.676Z,102802.34
2023-04-16T20:30:57.175Z,102802.19
2023-04-16T20:33:23.585Z,102800.47
2023-04-16T20:35:51.981Z,102800.63
2023-04-16T20:38:23.512Z,102801.50
2023-04-16T20:40:58.066Z,102806.66
2023-04-16T20:43:25.936Z,102793.50
2023-04-16T20:45:52.346Z,102795.34
2023-04-16T20:48:18.793Z,102799.03
2023-04-16T20:50:45.316Z,102796.41
2023-04-16T20:53:13.001Z,102794.59
2023-04-16T20:55:39.399Z,102791.22
2023-04-16T20:58:05.757Z,102790.50
2023-04-16T21:00:32.124Z,102795.94
2023-04-16T21:02:58.620Z,102790.69
2023-04-16T21:05:29.792Z,102787.97
2023-04-16T21:07:56.128Z,102787.88
2023-04-16T21:10:22.510Z,102781.69
2023-04-16T21:12:48.879Z,102795.94
2023-04-16T21:15:15.473Z,102785.56
2023-04-16T21:17:41.919Z,102781.13
2023-04-16T21:20:13.397Z,102788.94
2023-04-16T21:22:39.837Z,102790.03
2023-04-16T21:25:06.876Z,102786.84
2023-04-16T21:27:33.202Z,102784.44
2023-04-16T21:29:59.529Z,102782.75
2023-04-16T21:32:25.991Z,102771.50
2023-04-16T21:34:52.651Z,102781.13
2023-04-16T21:37:19.022Z,102782.66
2023-04-16T21:39:45.452Z,102778.19
2023-04-16T21:42:11.824Z,102784.31
2023-04-16T21:44:38.135Z,102781.69
2023-04-16T21:47:04.588Z,102775.41
2023-04-16T21:49:31.147Z,102784.31
2023-04-16T21:51:59.119Z,102787.00
2023-04-16T21:54:25.688Z,102786.31
2023-04-16T21:56:52.308Z,102791.47
2023-04-16T21:59:18.710Z,102780.31
2023-04-16T22:01:45.251Z,102790.00
2023-04-16T22:04:12.147Z,102796.25
2023-04-16T22:06:38.623Z,102790.28
2023-04-16T22:09:05.101Z,102787.94
2023-04-16T22:11:31.532Z,102790.56
2023-04-16T22:13:58.029Z,102785.19
2023-04-16T22:16:24.892Z,102783.63
2023-04-16T22:18:51.391Z,102787.25
2023-04-16T22:21:17.799Z,102784.53
2023-04-16T22:23:45.716Z,102780.91
2023-04-16T22:26:12.725Z,102784.41
2023-04-16T22:28:39.144Z,102780.84
2023-04-16T22:31:05.552Z,102779.94
2023-04-16T22:33:32.014Z,102771.28
2023-04-16T22:35:59.702Z,102780.22
2023-04-16T22:38:26.031Z,102784.72
2023-04-16T22:40:52.425Z,102782.97
2023-04-16T22:43:18.853Z,102784.19
2023-04-16T22:45:48.565Z,102785.97
2023-04-16T22:48:15.463Z,102777.09
2023-04-16T22:50:46.099Z,102781.50
2023-04-16T22:53:12.447Z,102784.91
2023-04-16T22:55:38.841Z,102785.75
2023-04-16T22:58:05.359Z,102782.38
2023-04-16T23:00:31.741Z,102782.38
2023-04-16T23:02:58.304Z,102780.72
2023-04-16T23:05:24.661Z,102780.78
2023-04-16T23:07:51.081Z,102778.03
2023-04-16T23:10:17.533Z,102778.94
2023-04-16T23:12:43.872Z,102787.75
2023-04-16T23:15:10.965Z,102791.31
2023-04-16T23:17:37.468Z,102788.69
2023-04-16T23:20:07.427Z,102780.03
2023-04-16T23:22:33.873Z,102784.47
2023-04-16T23:25:00.732Z,102793.16
2023-04-16T23:27:27.123Z,102781.84
2023-04-16T23:29:53.429Z,102780.31
2023-04-16T23:32:19.847Z,102796.84
2023-04-16T23:34:46.245Z,102796.72
2023-04-16T23:37:12.628Z,102788.84
2023-04-16T23:39:39.040Z,102791.59
2023-04-16T23:42:05.747Z,102799.41
2023-04-16T23:44:32.114Z,102794.38
2023-04-16T23:46:58.582Z,102790.16
2023-04-16T23:49:24.994Z,102795.44
2023-04-16T23:51:51.531Z,102797.13
2023-04-16T23:54:18.101Z,102797.13
2023-04-16T23:56:44.423Z,102790.16
2023-04-16T23:59:11.300Z,102791.75
